createdAt,value
2023-03-04T00:01:22.390Z,93.39
2023-03-04T00:03:48.716Z,93.03
2023-03-04T00:06:14.974Z,94.47
2023-03-04T00:08:41.344Z,94.33
2023-03-04T00:11:07.679Z,94.32
2023-03-04T00:13:34.005Z,94.20
2023-03-04T00:16:00.298Z,93.25
2023-03-04T00:18:26.633Z,93.29
2023-03-04T00:20:52.948Z,93.94
2023-03-04T00:23:19.271Z,92.69
2023-03-04T00:25:45.527Z,93.40
2023-03-04T00:28:11.845Z,94.61
2023-03-04T00:30:38.097Z,93.94
2023-03-04T00:33:04.548Z,94.56
2023-03-04T00:35:30.948Z,94.54
2023-03-04T00:37:57.295Z,95.21
2023-03-04T00:40:23.517Z,95.27
2023-03-04T00:42:49.827Z,95.10
2023-03-04T00:45:16.089Z,95.42
2023-03-04T00:47:42.464Z,95.52
2023-03-04T00:50:09.651Z,95.09
2023-03-04T00:52:36.101Z,94.98
2023-03-04T00:55:02.430Z,95.63
2023-03-04T00:57:28.671Z,95.73
2023-03-04T00:59:55.068Z,95.59
2023-03-04T01:02:21.539Z,95.18
2023-03-04T01:04:47.937Z,95.20
2023-03-04T01:07:14.224Z,95.05
2023-03-04T01:09:40.665Z,94.09
2023-03-04T01:12:07.933Z,94.18
2023-03-04T01:14:34.348Z,93.93
2023-03-04T01:17:00.848Z,94.59
2023-03-04T01:19:27.314Z,94.29
2023-03-04T01:21:53.623Z,93.14
2023-03-04T01:24:19.897Z,92.09
2023-03-04T01:26:46.227Z,92.49
2023-03-04T01:29:12.787Z,92.27
2023-03-04T01:31:39.037Z,91.56
2023-03-04T01:34:05.364Z,90.97
2023-03-04T01:36:31.617Z,91.08
2023-03-04T01:38:57.949Z,91.07
2023-03-04T01:41:25.609Z,90.68
2023-03-04T01:43:52.368Z,90.96
2023-03-04T01:46:18.782Z,91.43
2023-03-04T01:48:45.202Z,90.86
2023-03-04T01:51:16.844Z,91.88
2023-03-04T01:53:44.845Z,91.73
2023-03-04T01:56:29.163Z,91.82
2023-03-04T01:59:10.692Z,90.50
2023-03-04T02:01:38.053Z,90.01
2023-03-04T02:04:04.900Z,89.49
2023-03-04T02:06:31.923Z,90.53
2023-03-04T02:08:58.444Z,90.40
2023-03-04T02:11:24.845Z,90.80
2023-03-04T02:13:52.532Z,91.00
2023-03-04T02:16:19.471Z,90.53
2023-03-04T02:18:45.969Z,90.70
2023-03-04T02:21:19.447Z,91.36
2023-03-04T02:24:04.060Z,91.35
2023-03-04T02:26:32.438Z,91.59
2023-03-04T02:29:00.050Z,90.89
2023-03-04T02:31:30.016Z,90.63
2023-03-04T02:33:59.317Z,90.97
2023-03-04T02:36:26.146Z,91.03
2023-03-04T02:38:54.414Z,90.58
2023-03-04T02:41:26.236Z,90.10
2023-03-04T02:43:54.501Z,90.69
2023-03-04T02:46:21.092Z,91.64
2023-03-04T02:48:47.454Z,91.60
2023-03-04T02:51:13.684Z,92.20
2023-03-04T02:53:39.986Z,91.08
2023-03-04T02:56:06.507Z,90.92
2023-03-04T02:58:33.010Z,90.75
2023-03-04T03:00:59.442Z,91.61
2023-03-04T03:03:26.052Z,91.32
2023-03-04T03:05:54.112Z,90.92
2023-03-04T03:08:20.828Z,90.64
2023-03-04T03:10:47.133Z,90.88
2023-03-04T03:13:13.405Z,90.51
2023-03-04T03:15:39.733Z,90.80
2023-03-04T03:18:06.039Z,91.11
2023-03-04T03:20:32.300Z,91.43
2023-03-04T03:22:58.659Z,91.51
2023-03-04T03:25:25.005Z,91.81
2023-03-04T03:27:51.253Z,91.86
2023-03-04T03:30:18.324Z,91.98
2023-03-04T03:32:44.708Z,92.01
2023-03-04T03:35:11.289Z,92.10
2023-03-04T03:37:37.632Z,92.42
2023-03-04T03:40:04.594Z,91.83
2023-03-04T03:42:30.986Z,92.59
2023-03-04T03:44:57.353Z,93.01
2023-03-04T03:47:23.830Z,92.83
2023-03-04T03:49:50.144Z,94.27
2023-03-04T03:52:16.408Z,94.44
2023-03-04T03:54:42.753Z,94.36
2023-03-04T03:57:09.118Z,94.70
2023-03-04T03:59:35.522Z,95.87
2023-03-04T04:02:01.939Z,96.15
2023-03-04T04:04:28.363Z,96.41
2023-03-04T04:06:54.629Z,96.46
2023-03-04T04:09:20.949Z,96.07
2023-03-04T04:11:47.198Z,96.99
2023-03-04T04:14:14.426Z,97.80
2023-03-04T04:16:41.367Z,98.17
2023-03-04T04:19:07.864Z,98.88
2023-03-04T04:21:34.163Z,99.00
2023-03-04T04:24:00.441Z,99.03
2023-03-04T04:26:26.808Z,99.02
2023-03-04T04:28:53.234Z,98.93
2023-03-04T04:31:19.623Z,98.17
2023-03-04T04:33:45.921Z,98.53
2023-03-04T04:36:15.352Z,97.77
2023-03-04T04:38:42.118Z,97.42
2023-03-04T04:41:19.746Z,97.45
2023-03-04T04:43:46.730Z,97.36
2023-03-04T04:46:13.624Z,97.09
2023-03-04T04:48:39.994Z,96.79
2023-03-04T04:51:06.244Z,96.74
2023-03-04T04:53:32.566Z,96.23
2023-03-04T04:55:58.782Z,96.28
2023-03-04T04:58:25.349Z,96.10
2023-03-04T05:00:51.833Z,95.49
2023-03-04T05:03:18.759Z,95.30
2023-03-04T05:05:45.202Z,94.46
2023-03-04T05:08:11.571Z,94.88
2023-03-04T05:10:37.874Z,95.41
2023-03-04T05:13:04.149Z,95.45
2023-03-04T05:15:30.586Z,94.67
2023-03-04T05:17:57.022Z,94.38
2023-03-04T05:20:23.368Z,94.59
2023-03-04T05:22:49.675Z,94.44
2023-03-04T05:25:15.961Z,94.10
2023-03-04T05:27:42.309Z,94.28
2023-03-04T05:30:09.471Z,94.05
2023-03-04T05:32:35.780Z,93.82
2023-03-04T05:35:02.059Z,93.81
2023-03-04T05:37:28.382Z,94.34
2023-03-04T05:39:54.631Z,94.00
2023-03-04T05:42:20.948Z,94.21
2023-03-04T05:44:47.203Z,94.43
2023-03-04T05:47:13.504Z,93.99
2023-03-04T05:49:39.737Z,94.10
2023-03-04T05:52:06.046Z,94.18
2023-03-04T05:54:32.291Z,94.19
2023-03-04T05:56:58.638Z,95.10
2023-03-04T05:59:25.069Z,94.66
2023-03-04T06:01:51.395Z,95.08
2023-03-04T06:04:17.623Z,95.56
2023-03-04T06:06:43.966Z,95.66
2023-03-04T06:09:10.256Z,95.53
2023-03-04T06:11:36.642Z,95.23
2023-03-04T06:14:03.488Z,96.02
2023-03-04T06:16:30.023Z,96.79
2023-03-04T06:18:56.524Z,97.20
2023-03-04T06:21:22.940Z,99.16
2023-03-04T06:23:49.355Z,100.00
2023-03-04T06:26:15.998Z,100.00
2023-03-04T06:28:43.139Z,100.00
2023-03-04T06:31:09.484Z,99.83
2023-03-04T06:33:35.962Z,99.38
2023-03-04T06:36:02.697Z,99.12
2023-03-04T06:38:29.071Z,99.33
2023-03-04T06:40:57.278Z,98.98
2023-03-04T06:43:23.960Z,98.57
2023-03-04T06:45:50.308Z,98.10
2023-03-04T06:48:16.575Z,97.99
2023-03-04T06:50:42.959Z,97.69
2023-03-04T06:53:09.233Z,97.77
2023-03-04T06:55:35.602Z,97.98
2023-03-04T06:58:01.927Z,97.92
2023-03-04T07:00:28.410Z,97.67
2023-03-04T07:02:55.302Z,97.42
2023-03-04T07:05:21.703Z,97.31
2023-03-04T07:07:48.075Z,97.32
2023-03-04T07:10:14.409Z,97.48
2023-03-04T07:12:40.646Z,97.68
2023-03-04T07:15:07.481Z,97.40
2023-03-04T07:17:33.814Z,97.31
2023-03-04T07:20:00.179Z,97.77
2023-03-04T07:22:26.557Z,97.88
2023-03-04T07:24:52.906Z,98.02
2023-03-04T07:27:19.301Z,98.21
2023-03-04T07:29:45.627Z,99.22
2023-03-04T07:32:12.057Z,99.82
2023-03-04T07:34:38.543Z,100.00
2023-03-04T07:37:04.888Z,100.00
2023-03-04T07:39:31.099Z,100.00
2023-03-04T07:41:57.470Z,100.00
2023-03-04T07:44:23.801Z,100.00
2023-03-04T07:46:50.144Z,100.00
2023-03-04T07:49:16.419Z,100.00
2023-03-04T07:51:42.759Z,100.00
2023-03-04T07:54:09.713Z,100.00
2023-03-04T07:56:36.124Z,100.00
2023-03-04T07:59:02.779Z,100.00
2023-03-04T08:01:35.430Z,100.00
2023-03-04T08:04:02.636Z,100.00
2023-03-04T08:06:29.655Z,98.85
2023-03-04T08:09:05.269Z,99.29
2023-03-04T08:11:32.773Z,98.30
2023-03-04T08:13:59.128Z,98.17
2023-03-04T08:16:26.020Z,97.81
2023-03-04T08:18:55.074Z,98.34
2023-03-04T08:21:22.872Z,98.93
2023-03-04T08:23:50.096Z,97.46
2023-03-04T08:26:28.765Z,97.33
2023-03-04T08:28:55.956Z,97.54
2023-03-04T08:31:22.731Z,96.70
2023-03-04T08:33:49.162Z,94.89
2023-03-04T08:36:16.201Z,94.95
2023-03-04T08:38:42.940Z,94.68
2023-03-04T08:41:09.384Z,94.19
2023-03-04T08:43:35.775Z,94.26
2023-03-04T08:46:02.652Z,95.84
2023-03-04T08:48:29.186Z,97.83
2023-03-04T08:50:55.656Z,96.16
2023-03-04T08:53:22.102Z,95.87
2023-03-04T08:55:50.352Z,97.56
2023-03-04T08:58:16.722Z,99.02
2023-03-04T09:00:45.123Z,97.91
2023-03-04T09:03:12.522Z,97.91
2023-03-04T09:05:39.153Z,97.36
2023-03-04T09:08:05.930Z,95.83
2023-03-04T09:10:32.315Z,95.20
2023-03-04T09:12:58.904Z,94.52
2023-03-04T09:15:25.246Z,95.20
2023-03-04T09:17:51.582Z,93.24
2023-03-04T09:20:18.025Z,90.10
2023-03-04T09:22:44.392Z,90.02
2023-03-04T09:25:14.289Z,88.88
2023-03-04T09:27:40.926Z,85.49
2023-03-04T09:30:08.998Z,85.79
2023-03-04T09:32:35.438Z,84.03
2023-03-04T09:35:01.940Z,85.59
2023-03-04T09:37:28.276Z,87.88
2023-03-04T09:39:54.641Z,89.01
2023-03-04T09:42:33.498Z,89.95
2023-03-04T09:45:00.474Z,93.73
2023-03-04T09:47:26.953Z,96.16
2023-03-04T09:50:04.080Z,97.59
2023-03-04T09:52:55.963Z,100.00
2023-03-04T09:55:34.710Z,98.50
2023-03-04T09:58:25.300Z,98.95
2023-03-04T10:01:01.883Z,99.40
2023-03-04T10:03:41.979Z,100.00
2023-03-04T10:06:13.054Z,100.00
2023-03-04T10:08:44.676Z,100.00
2023-03-04T10:11:16.304Z,100.00
2023-03-04T10:13:56.175Z,100.00
2023-03-04T10:16:29.217Z,100.00
2023-03-04T10:19:19.927Z,100.00
2023-03-04T10:21:48.995Z,100.00
2023-03-04T10:24:18.641Z,100.00
2023-03-04T10:26:49.336Z,100.00
2023-03-04T10:29:19.329Z,97.85
2023-03-04T10:31:46.322Z,99.41
2023-03-04T10:34:14.568Z,99.83
2023-03-04T10:36:54.526Z,100.00
2023-03-04T10:39:29.019Z,100.00
2023-03-04T10:42:05.246Z,100.00
2023-03-04T10:44:33.890Z,100.00
2023-03-04T10:47:00.917Z,100.00
2023-03-04T10:49:29.230Z,100.00
2023-03-04T10:52:03.280Z,100.00
2023-03-04T10:54:48.719Z,100.00
2023-03-04T10:57:20.045Z,100.00
2023-03-04T10:59:50.532Z,100.00
2023-03-04T11:02:26.389Z,100.00
2023-03-04T11:05:07.846Z,100.00
2023-03-04T11:07:54.037Z,100.00
2023-03-04T11:10:25.385Z,100.00
2023-03-04T11:13:07.322Z,100.00
2023-03-04T11:15:58.614Z,100.00
2023-03-04T11:18:47.842Z,100.00
2023-03-04T11:21:19.515Z,100.00
2023-03-04T11:23:51.262Z,100.00
2023-03-04T11:26:26.730Z,100.00
2023-03-04T11:29:02.082Z,100.00
2023-03-04T11:31:35.166Z,100.00
2023-03-04T11:34:08.633Z,100.00
2023-03-04T11:36:49.906Z,100.00
2023-03-04T11:39:31.415Z,98.34
2023-03-04T11:42:04.845Z,99.02
2023-03-04T11:44:31.288Z,99.26
2023-03-04T11:47:15.282Z,100.00
2023-03-04T11:49:59.916Z,99.36
2023-03-04T11:52:57.541Z,99.54
2023-03-04T11:55:36.613Z,99.78
2023-03-04T11:58:11.529Z,100.00
2023-03-04T12:00:46.242Z,100.00
2023-03-04T12:03:51.266Z,99.34
2023-03-04T12:06:59.075Z,99.11
2023-03-04T12:09:37.240Z,99.99
2023-03-04T12:12:26.761Z,100.00
2023-03-04T12:15:27.624Z,99.52
2023-03-04T12:18:13.968Z,93.72
2023-03-04T12:21:04.703Z,93.75
2023-03-04T12:23:46.188Z,90.00
2023-03-04T12:26:44.846Z,91.43
2023-03-04T12:29:20.407Z,92.04
2023-03-04T12:31:51.492Z,90.53
2023-03-04T12:34:54.144Z,86.40
2023-03-04T12:38:01.686Z,85.08
2023-03-04T12:40:41.275Z,84.56
2023-03-04T12:43:30.499Z,82.40
2023-03-04T12:46:02.922Z,82.94
2023-03-04T12:48:29.288Z,82.98
2023-03-04T12:51:11.381Z,82.68
2023-03-04T12:53:42.951Z,84.70
2023-03-04T12:56:22.436Z,81.87
2023-03-04T12:58:49.674Z,83.25
2023-03-04T13:01:24.080Z,81.55
2023-03-04T13:04:15.663Z,83.11
2023-03-04T13:06:53.462Z,84.08
2023-03-04T13:09:26.545Z,82.46
2023-03-04T13:11:54.853Z,81.24
2023-03-04T13:14:21.188Z,78.91
2023-03-04T13:16:51.606Z,79.94
2023-03-04T13:19:36.704Z,81.37
2023-03-04T13:22:03.068Z,80.46
2023-03-04T13:24:57.277Z,79.76
2023-03-04T13:27:49.588Z,82.17
2023-03-04T13:30:31.205Z,82.10
2023-03-04T13:32:59.117Z,83.01
2023-03-04T13:35:47.038Z,83.69
2023-03-04T13:38:27.201Z,85.24
2023-03-04T13:41:05.823Z,83.45
2023-03-04T13:43:39.232Z,84.33
2023-03-04T13:46:21.080Z,83.73
2023-03-04T13:48:50.211Z,80.72
2023-03-04T13:51:30.639Z,81.77
2023-03-04T13:54:00.142Z,82.96
2023-03-04T13:56:26.583Z,80.56
2023-03-04T13:59:05.035Z,81.16
2023-03-04T14:01:53.687Z,79.36
2023-03-04T14:04:23.153Z,81.50
2023-03-04T14:06:51.542Z,80.41
2023-03-04T14:09:29.645Z,81.97
2023-03-04T14:12:14.366Z,81.63
2023-03-04T14:14:47.625Z,80.81
2023-03-04T14:17:20.930Z,82.55
2023-03-04T14:19:49.147Z,83.18
2023-03-04T14:22:24.115Z,85.81
2023-03-04T14:24:57.488Z,86.03
2023-03-04T14:27:23.912Z,86.32
2023-03-04T14:29:58.128Z,86.56
2023-03-04T14:32:26.084Z,86.53
2023-03-04T14:34:58.145Z,85.74
2023-03-04T14:37:42.596Z,85.91
2023-03-04T14:40:20.534Z,85.86
2023-03-04T14:42:48.352Z,84.49
2023-03-04T14:45:16.717Z,84.36
2023-03-04T14:47:47.143Z,85.18
2023-03-04T14:50:16.526Z,86.52
2023-03-04T14:52:46.047Z,86.44
2023-03-04T14:55:15.348Z,86.95
2023-03-04T14:57:47.275Z,89.06
2023-03-04T15:00:15.830Z,89.51
2023-03-04T15:02:42.650Z,89.87
2023-03-04T15:05:17.650Z,89.72
2023-03-04T15:07:51.713Z,89.84
2023-03-04T15:10:22.810Z,87.85
2023-03-04T15:12:54.979Z,88.14
2023-03-04T15:15:32.702Z,87.50
2023-03-04T15:18:15.531Z,86.59
2023-03-04T15:20:42.042Z,85.45
2023-03-04T15:23:08.484Z,85.59
2023-03-04T15:25:35.465Z,83.75
2023-03-04T15:28:03.318Z,84.49
2023-03-04T15:30:33.643Z,84.33
2023-03-04T15:33:00.463Z,82.17
2023-03-04T15:35:30.425Z,81.06
2023-03-04T15:37:57.275Z,81.18
2023-03-04T15:40:32.661Z,81.01
2023-03-04T15:43:01.714Z,81.87
2023-03-04T15:45:29.713Z,81.95
2023-03-04T15:47:56.505Z,79.54
2023-03-04T15:50:28.795Z,81.01
2023-03-04T15:52:59.917Z,81.64
2023-03-04T15:55:26.296Z,80.93
2023-03-04T15:57:56.250Z,81.83
2023-03-04T16:00:23.057Z,81.53
2023-03-04T16:02:49.465Z,83.23
2023-03-04T16:05:16.234Z,81.75
2023-03-04T16:07:46.331Z,80.93
2023-03-04T16:10:28.196Z,81.75
2023-03-04T16:12:54.747Z,84.41
2023-03-04T16:15:24.671Z,80.94
2023-03-04T16:17:51.783Z,81.97
2023-03-04T16:20:21.362Z,79.75
2023-03-04T16:22:51.368Z,81.80
2023-03-04T16:25:18.674Z,81.96
2023-03-04T16:27:45.329Z,81.74
2023-03-04T16:30:20.750Z,83.01
2023-03-04T16:32:47.531Z,84.64
2023-03-04T16:35:15.175Z,85.96
2023-03-04T16:37:42.455Z,86.52
2023-03-04T16:40:13.548Z,88.26
2023-03-04T16:42:40.382Z,88.73
2023-03-04T16:45:14.844Z,87.85
2023-03-04T16:47:41.182Z,89.37
2023-03-04T16:50:07.575Z,90.19
2023-03-04T16:52:33.968Z,90.21
2023-03-04T16:55:00.302Z,90.41
2023-03-04T16:57:26.631Z,90.96
2023-03-04T16:59:53.034Z,91.47
2023-03-04T17:02:20.461Z,91.46
2023-03-04T17:04:48.742Z,92.32
2023-03-04T17:07:15.369Z,93.40
2023-03-04T17:09:42.168Z,93.22
2023-03-04T17:12:11.177Z,94.03
2023-03-04T17:14:38.847Z,93.80
2023-03-04T17:17:06.463Z,95.55
2023-03-04T17:19:33.329Z,95.33
2023-03-04T17:22:01.045Z,96.83
2023-03-04T17:24:28.483Z,98.20
2023-03-04T17:26:55.344Z,98.42
2023-03-04T17:29:22.214Z,99.98
2023-03-04T17:31:48.559Z,99.91
2023-03-04T17:34:14.880Z,100.00
2023-03-04T17:36:41.156Z,99.19
2023-03-04T17:39:07.901Z,99.15
2023-03-04T17:41:36.079Z,98.83
2023-03-04T17:44:02.794Z,99.45
2023-03-04T17:46:29.472Z,98.71
2023-03-04T17:48:58.108Z,98.91
2023-03-04T17:51:36.439Z,98.55
2023-03-04T17:54:03.377Z,98.38
2023-03-04T17:56:31.552Z,97.18
2023-03-04T17:59:00.271Z,96.83
2023-03-04T18:01:27.447Z,97.28
2023-03-04T18:03:54.370Z,97.62
2023-03-04T18:06:21.692Z,99.03
2023-03-04T18:08:48.926Z,100.00
2023-03-04T18:11:15.503Z,100.00
2023-03-04T18:13:43.574Z,100.00
2023-03-04T18:16:10.925Z,100.00
2023-03-04T18:18:37.482Z,100.00
2023-03-04T18:21:04.105Z,100.00
2023-03-04T18:23:30.842Z,100.00
2023-03-04T18:25:57.360Z,100.00
2023-03-04T18:28:24.097Z,100.00
2023-03-04T18:30:51.863Z,100.00
2023-03-04T18:33:18.597Z,100.00
2023-03-04T18:35:44.980Z,100.00
2023-03-04T18:38:11.478Z,100.00
2023-03-04T18:40:41.974Z,100.00
2023-03-04T18:43:08.790Z,100.00
2023-03-04T18:45:35.209Z,100.00
2023-03-04T18:48:01.673Z,100.00
2023-03-04T18:50:28.482Z,100.00
2023-03-04T18:52:54.795Z,100.00
2023-03-04T18:55:22.041Z,100.00
2023-03-04T18:57:52.057Z,100.00
2023-03-04T19:00:20.382Z,100.00
2023-03-04T19:02:51.951Z,100.00
2023-03-04T19:05:26.673Z,100.00
2023-03-04T19:07:53.747Z,100.00
2023-03-04T19:10:20.300Z,100.00
2023-03-04T19:12:46.665Z,100.00
2023-03-04T19:15:13.597Z,100.00
2023-03-04T19:17:40.672Z,100.00
2023-03-04T19:20:09.356Z,100.00
2023-03-04T19:22:36.364Z,100.00
2023-03-04T19:25:03.161Z,100.00
2023-03-04T19:27:30.432Z,100.00
2023-03-04T19:29:56.866Z,100.00
2023-03-04T19:32:23.289Z,100.00
2023-03-04T19:34:49.694Z,100.00
2023-03-04T19:37:16.127Z,100.00
2023-03-04T19:39:42.907Z,100.00
2023-03-04T19:42:10.549Z,100.00
2023-03-04T19:44:36.941Z,100.00
2023-03-04T19:47:03.438Z,100.00
2023-03-04T19:49:33.486Z,100.00
2023-03-04T19:52:00.286Z,100.00
2023-03-04T19:54:30.520Z,100.00
2023-03-04T19:56:58.342Z,100.00
2023-03-04T19:59:25.113Z,100.00
2023-03-04T20:01:51.511Z,100.00
2023-03-04T20:04:18.963Z,100.00
2023-03-04T20:06:47.491Z,100.00
2023-03-04T20:09:15.975Z,100.00
2023-03-04T20:11:57.353Z,100.00
2023-03-04T20:14:24.840Z,100.00
2023-03-04T20:16:51.204Z,100.00
2023-03-04T20:19:17.477Z,100.00
2023-03-04T20:21:43.865Z,100.00
2023-03-04T20:24:10.138Z,100.00
2023-03-04T20:26:36.450Z,100.00
2023-03-04T20:29:02.830Z,100.00
2023-03-04T20:31:30.105Z,100.00
2023-03-04T20:33:57.127Z,100.00
2023-03-04T20:36:26.481Z,100.00
2023-03-04T20:39:00.665Z,100.00
2023-03-04T20:41:28.676Z,100.00
2023-03-04T20:43:55.016Z,100.00
2023-03-04T20:46:39.505Z,100.00
2023-03-04T20:49:08.825Z,100.00
2023-03-04T20:51:35.523Z,100.00
2023-03-04T20:54:02.242Z,100.00
2023-03-04T20:56:28.813Z,100.00
2023-03-04T20:58:57.226Z,100.00
2023-03-04T21:01:24.138Z,100.00
2023-03-04T21:03:50.603Z,100.00
2023-03-04T21:06:17.049Z,100.00
2023-03-04T21:08:44.055Z,100.00
2023-03-04T21:11:12.854Z,100.00
2023-03-04T21:13:39.710Z,100.00
2023-03-04T21:16:09.984Z,100.00
2023-03-04T21:18:36.345Z,100.00
2023-03-04T21:21:09.477Z,100.00
2023-03-04T21:23:38.472Z,100.00
2023-03-04T21:26:05.650Z,100.00
2023-03-04T21:28:31.987Z,100.00
2023-03-04T21:30:58.515Z,100.00
2023-03-04T21:33:30.281Z,100.00
2023-03-04T21:35:56.692Z,100.00
2023-03-04T21:38:23.021Z,100.00
2023-03-04T21:40:49.378Z,100.00
2023-03-04T21:43:15.760Z,100.00
2023-03-04T21:45:42.021Z,100.00
2023-03-04T21:48:08.382Z,100.00
2023-03-04T21:50:34.726Z,100.00
2023-03-04T21:53:01.048Z,100.00
2023-03-04T21:55:27.429Z,100.00
2023-03-04T21:57:53.750Z,100.00
2023-03-04T22:00:20.498Z,100.00
2023-03-04T22:02:46.878Z,100.00
2023-03-04T22:05:13.204Z,100.00
2023-03-04T22:07:39.514Z,100.00
2023-03-04T22:10:06.337Z,100.00
2023-03-04T22:12:32.780Z,100.00
2023-03-04T22:14:59.089Z,100.00
2023-03-04T22:17:25.501Z,100.00
2023-03-04T22:19:51.776Z,100.00
2023-03-04T22:22:18.146Z,100.00
2023-03-04T22:24:44.429Z,100.00
2023-03-04T22:27:10.953Z,100.00
2023-03-04T22:29:37.293Z,100.00
2023-03-04T22:32:04.046Z,100.00
2023-03-04T22:34:30.509Z,100.00
2023-03-04T22:36:56.835Z,100.00
2023-03-04T22:39:23.344Z,100.00
2023-03-04T22:41:49.854Z,100.00
2023-03-04T22:44:16.126Z,100.00
2023-03-04T22:46:42.643Z,100.00
2023-03-04T22:49:11.728Z,100.00
2023-03-04T22:51:39.623Z,100.00
2023-03-04T22:54:05.974Z,100.00
2023-03-04T22:56:32.666Z,100.00
2023-03-04T22:58:59.095Z,100.00
2023-03-04T23:01:25.404Z,100.00
2023-03-04T23:03:52.771Z,100.00
2023-03-04T23:06:22.155Z,100.00
2023-03-04T23:08:50.287Z,100.00
2023-03-04T23:11:19.974Z,100.00
2023-03-04T23:13:47.497Z,100.00
2023-03-04T23:16:14.572Z,100.00
2023-03-04T23:18:42.828Z,100.00
2023-03-04T23:21:27.099Z,100.00
2023-03-04T23:23:53.749Z,100.00
2023-03-04T23:26:30.622Z,100.00
2023-03-04T23:28:57.165Z,100.00
2023-03-04T23:31:24.363Z,100.00
2023-03-04T23:33:50.865Z,100.00
2023-03-04T23:36:17.852Z,100.00
2023-03-04T23:38:46.340Z,100.00
2023-03-04T23:41:24.862Z,100.00
2023-03-04T23:43:52.505Z,100.00
2023-03-04T23:46:19.490Z,100.00
2023-03-04T23:48:45.933Z,100.00
2023-03-04T23:51:12.706Z,100.00
2023-03-04T23:53:39.158Z,100.00
2023-03-04T23:56:10.039Z,100.00
2023-03-04T23:58:37.070Z,100.00
